sensor_id;sensor_type;location;lat;lon;timestamp;P1;durP1;ratioP1;P2;durP2;ratioP2
17261;SDS011;9873;52.236;21.002;2023-05-25T00:03:17;24.63;;;17.45;;
17261;SDS011;9873;52.236;21.002;2023-05-25T00:13:25;25.30;;;16.90;;
17261;SDS011;9873;52.236;21.002;2023-05-25T00:23:32;27.35;;;15.68;;
17261;SDS011;9873;52.236;21.002;2023-05-25T00:33:39;28.45;;;17.33;;
17261;SDS011;9873;52.236;21.002;2023-05-25T00:43:44;30.10;;;17.27;;
17261;SDS011;9873;52.236;21.002;2023-05-25T00:53:50;32.53;;;19.05;;
17261;SDS011;9873;52.236;21.002;2023-05-25T01:03:54;33.70;;;18.95;;
17261;SDS011;9873;52.236;21.002;2023-05-25T01:14:03;33.35;;;18.48;;
17261;SDS011;9873;52.236;21.002;2023-05-25T01:24:27;41.00;;;21.70;;
17261;SDS011;9873;52.236;21.002;2023-05-25T01:34:36;39.50;;;22.35;;
17261;SDS011;9873;52.236;21.002;2023-05-25T01:44:41;44.95;;;22.85;;
17261;SDS011;9873;52.236;21.002;2023-05-25T01:54:52;48.78;;;24.17;;
17261;SDS011;9873;52.236;21.002;2023-05-25T02:05:05;45.72;;;24.38;;
17261;SDS011;9873;52.236;21.002;2023-05-25T02:15:10;43.67;;;22.85;;
17261;SDS011;9873;52.236;21.002;2023-05-25T02:25:23;37.00;;;22.38;;
17261;SDS011;9873;52.236;21.002;2023-05-25T02:35:28;37.28;;;22.30;;
17261;SDS011;9873;52.236;21.002;2023-05-25T02:45:34;39.70;;;23.08;;
17261;SDS011;9873;52.236;21.002;2023-05-25T02:55:36;34.42;;;20.08;;
17261;SDS011;9873;52.236;21.002;2023-05-25T03:05:45;37.63;;;21.92;;
17261;SDS011;9873;52.236;21.002;2023-05-25T03:15:49;38.00;;;21.70;;
17261;SDS011;9873;52.236;21.002;2023-05-25T03:25:58;38.42;;;21.17;;
17261;SDS011;9873;52.236;21.002;2023-05-25T03:36:06;33.70;;;20.63;;
17261;SDS011;9873;52.236;21.002;2023-05-25T03:46:14;37.17;;;21.52;;
17261;SDS011;9873;52.236;21.002;2023-05-25T03:56:19;35.50;;;21.27;;
17261;SDS011;9873;52.236;21.002;2023-05-25T04:06:26;33.17;;;21.70;;
17261;SDS011;9873;52.236;21.002;2023-05-25T04:16:35;30.98;;;20.85;;
17261;SDS011;9873;52.236;21.002;2023-05-25T04:26:42;39.33;;;20.42;;
17261;SDS011;9873;52.236;21.002;2023-05-25T04:36:50;35.30;;;20.85;;
17261;SDS011;9873;52.236;21.002;2023-05-25T04:46:56;35.97;;;20.05;;
17261;SDS011;9873;52.236;21.002;2023-05-25T04:57:08;32.25;;;21.08;;
17261;SDS011;9873;52.236;21.002;2023-05-25T05:07:13;35.88;;;22.55;;
17261;SDS011;9873;52.236;21.002;2023-05-25T05:17:18;30.50;;;19.85;;
17261;SDS011;9873;52.236;21.002;2023-05-25T05:27:21;37.35;;;21.63;;
17261;SDS011;9873;52.236;21.002;2023-05-25T05:37:29;46.33;;;21.95;;
17261;SDS011;9873;52.236;21.002;2023-05-25T05:47:32;36.05;;;21.33;;
17261;SDS011;9873;52.236;21.002;2023-05-25T05:57:40;33.00;;;21.05;;
17261;SDS011;9873;52.236;21.002;2023-05-25T06:07:52;39.50;;;29.38;;
17261;SDS011;9873;52.236;21.002;2023-05-25T06:17:57;27.75;;;20.02;;
17261;SDS011;9873;52.236;21.002;2023-05-25T06:28:01;30.10;;;20.98;;
17261;SDS011;9873;52.236;21.002;2023-05-25T06:38:06;29.73;;;19.70;;
17261;SDS011;9873;52.236;21.002;2023-05-25T06:48:11;28.05;;;19.67;;
17261;SDS011;9873;52.236;21.002;2023-05-25T06:58:16;33.40;;;19.30;;
17261;SDS011;9873;52.236;21.002;2023-05-25T07:08:22;27.42;;;18.92;;
17261;SDS011;9873;52.236;21.002;2023-05-25T07:18:30;30.55;;;19.05;;
17261;SDS011;9873;52.236;21.002;2023-05-25T07:28:38;29.10;;;19.33;;
17261;SDS011;9873;52.236;21.002;2023-05-25T07:38:41;26.92;;;20.60;;
17261;SDS011;9873;52.236;21.002;2023-05-25T07:48:55;29.42;;;20.92;;
17261;SDS011;9873;52.236;21.002;2023-05-25T07:59:03;27.58;;;18.25;;
17261;SDS011;9873;52.236;21.002;2023-05-25T08:09:06;27.98;;;19.33;;
17261;SDS011;9873;52.236;21.002;2023-05-25T08:19:09;24.52;;;17.70;;
17261;SDS011;9873;52.236;21.002;2023-05-25T08:29:12;23.33;;;17.20;;
17261;SDS011;9873;52.236;21.002;2023-05-25T08:39:17;25.75;;;19.05;;
17261;SDS011;9873;52.236;21.002;2023-05-25T08:49:19;23.20;;;17.13;;
17261;SDS011;9873;52.236;21.002;2023-05-25T09:10:01;18.00;;;14.88;;
17261;SDS011;9873;52.236;21.002;2023-05-25T09:20:07;23.33;;;17.92;;
17261;SDS011;9873;52.236;21.002;2023-05-25T09:30:12;20.67;;;16.25;;
17261;SDS011;9873;52.236;21.002;2023-05-25T09:40:14;25.20;;;16.83;;
17261;SDS011;9873;52.236;21.002;2023-05-25T09:50:19;23.85;;;18.70;;
17261;SDS011;9873;52.236;21.002;2023-05-25T10:00:22;23.45;;;18.27;;
17261;SDS011;9873;52.236;21.002;2023-05-25T10:10:25;24.10;;;17.60;;
17261;SDS011;9873;52.236;21.002;2023-05-25T10:20:30;22.15;;;17.83;;
17261;SDS011;9873;52.236;21.002;2023-05-25T10:30:38;22.58;;;16.77;;
17261;SDS011;9873;52.236;21.002;2023-05-25T10:40:45;24.17;;;16.75;;
17261;SDS011;9873;52.236;21.002;2023-05-25T10:50:52;17.95;;;14.18;;
17261;SDS011;9873;52.236;21.002;2023-05-25T11:01:09;20.80;;;15.70;;
17261;SDS011;9873;52.236;21.002;2023-05-25T11:11:16;18.17;;;14.95;;
17261;SDS011;9873;52.236;21.002;2023-05-25T11:31:30;17.17;;;14.48;;
17261;SDS011;9873;52.236;21.002;2023-05-25T11:41:47;16.45;;;14.57;;
17261;SDS011;9873;52.236;21.002;2023-05-25T11:51:53;15.80;;;12.45;;
17261;SDS011;9873;52.236;21.002;2023-05-25T12:02:01;14.63;;;11.55;;
17261;SDS011;9873;52.236;21.002;2023-05-25T12:12:10;14.82;;;12.35;;
17261;SDS011;9873;52.236;21.002;2023-05-25T12:22:12;13.10;;;11.75;;
17261;SDS011;9873;52.236;21.002;2023-05-25T12:32:18;16.10;;;13.43;;
17261;SDS011;9873;52.236;21.002;2023-05-25T12:42:22;14.32;;;12.32;;
17261;SDS011;9873;52.236;21.002;2023-05-25T12:52:41;13.50;;;11.57;;
17261;SDS011;9873;52.236;21.002;2023-05-25T13:02:46;13.20;;;10.85;;
17261;SDS011;9873;52.236;21.002;2023-05-25T13:12:55;11.73;;;10.52;;
17261;SDS011;9873;52.236;21.002;2023-05-25T13:22:59;13.70;;;9.52;;
17261;SDS011;9873;52.236;21.002;2023-05-25T13:33:04;10.43;;;9.43;;
17261;SDS011;9873;52.236;21.002;2023-05-25T13:43:07;11.85;;;9.65;;
17261;SDS011;9873;52.236;21.002;2023-05-25T13:53:10;11.40;;;8.60;;
17261;SDS011;9873;52.236;21.002;2023-05-25T14:03:15;12.65;;;9.25;;
17261;SDS011;9873;52.236;21.002;2023-05-25T14:13:19;9.70;;;8.70;;
17261;SDS011;9873;52.236;21.002;2023-05-25T14:23:25;11.43;;;10.15;;
17261;SDS011;9873;52.236;21.002;2023-05-25T14:33:31;14.73;;;10.27;;
17261;SDS011;9873;52.236;21.002;2023-05-25T14:43:34;12.38;;;9.85;;
17261;SDS011;9873;52.236;21.002;2023-05-25T14:53:38;12.77;;;10.23;;
17261;SDS011;9873;52.236;21.002;2023-05-25T15:03:40;11.57;;;9.73;;
17261;SDS011;9873;52.236;21.002;2023-05-25T15:13:45;9.93;;;8.80;;
17261;SDS011;9873;52.236;21.002;2023-05-25T15:23:50;9.90;;;8.90;;
17261;SDS011;9873;52.236;21.002;2023-05-25T15:33:55;10.05;;;9.02;;
17261;SDS011;9873;52.236;21.002;2023-05-25T15:44:03;10.32;;;8.77;;
17261;SDS011;9873;52.236;21.002;2023-05-25T15:54:10;11.23;;;9.10;;
17261;SDS011;9873;52.236;21.002;2023-05-25T16:04:17;10.43;;;8.20;;
17261;SDS011;9873;52.236;21.002;2023-05-25T16:14:27;11.38;;;9.15;;
17261;SDS011;9873;52.236;21.002;2023-05-25T16:24:29;10.65;;;9.55;;
17261;SDS011;9873;52.236;21.002;2023-05-25T16:34:37;9.30;;;8.23;;
17261;SDS011;9873;52.236;21.002;2023-05-25T16:44:44;10.90;;;9.07;;
17261;SDS011;9873;52.236;21.002;2023-05-25T16:54:48;10.98;;;9.00;;
17261;SDS011;9873;52.236;21.002;2023-05-25T17:04:53;13.43;;;9.40;;
17261;SDS011;9873;52.236;21.002;2023-05-25T17:14:57;10.18;;;9.07;;
17261;SDS011;9873;52.236;21.002;2023-05-25T17:25:06;10.30;;;9.20;;
17261;SDS011;9873;52.236;21.002;2023-05-25T17:35:12;12.68;;;9.52;;
17261;SDS011;9873;52.236;21.002;2023-05-25T17:45:22;11.75;;;8.90;;
17261;SDS011;9873;52.236;21.002;2023-05-25T17:55:24;10.30;;;8.63;;
17261;SDS011;9873;52.236;21.002;2023-05-25T18:05:30;9.70;;;8.55;;
17261;SDS011;9873;52.236;21.002;2023-05-25T18:15:37;12.88;;;9.13;;
17261;SDS011;9873;52.236;21.002;2023-05-25T18:25:41;12.43;;;8.73;;
17261;SDS011;9873;52.236;21.002;2023-05-25T18:35:52;9.45;;;8.48;;
17261;SDS011;9873;52.236;21.002;2023-05-25T18:45:56;11.88;;;8.82;;
17261;SDS011;9873;52.236;21.002;2023-05-25T18:56:02;11.70;;;9.05;;
17261;SDS011;9873;52.236;21.002;2023-05-25T19:06:05;12.38;;;9.95;;
17261;SDS011;9873;52.236;21.002;2023-05-25T19:16:11;13.25;;;10.43;;
17261;SDS011;9873;52.236;21.002;2023-05-25T19:26:20;10.40;;;9.30;;
17261;SDS011;9873;52.236;21.002;2023-05-25T19:36:22;14.75;;;10.57;;
17261;SDS011;9873;52.236;21.002;2023-05-25T19:46:27;13.77;;;10.02;;
17261;SDS011;9873;52.236;21.002;2023-05-25T19:56:33;11.27;;;9.82;;
17261;SDS011;9873;52.236;21.002;2023-05-25T20:06:36;17.42;;;11.93;;
17261;SDS011;9873;52.236;21.002;2023-05-25T20:16:40;15.98;;;11.93;;
17261;SDS011;9873;52.236;21.002;2023-05-25T20:26:43;13.07;;;10.68;;
17261;SDS011;9873;52.236;21.002;2023-05-25T20:36:45;13.18;;;10.85;;
17261;SDS011;9873;52.236;21.002;2023-05-25T20:46:49;13.02;;;11.20;;
17261;SDS011;9873;52.236;21.002;2023-05-25T20:56:57;25.85;;;16.75;;
17261;SDS011;9873;52.236;21.002;2023-05-25T21:07:05;14.32;;;12.85;;
17261;SDS011;9873;52.236;21.002;2023-05-25T21:17:10;12.60;;;11.18;;
17261;SDS011;9873;52.236;21.002;2023-05-25T21:27:21;11.85;;;9.77;;
17261;SDS011;9873;52.236;21.002;2023-05-25T21:37:27;15.15;;;9.23;;
17261;SDS011;9873;52.236;21.002;2023-05-25T21:47:39;11.57;;;9.52;;
17261;SDS011;9873;52.236;21.002;2023-05-25T21:57:46;9.88;;;8.82;;
17261;SDS011;9873;52.236;21.002;2023-05-25T22:07:50;11.38;;;9.77;;
17261;SDS011;9873;52.236;21.002;2023-05-25T22:17:57;8.63;;;7.43;;
17261;SDS011;9873;52.236;21.002;2023-05-25T22:28:02;9.45;;;8.32;;
17261;SDS011;9873;52.236;21.002;2023-05-25T22:38:05;11.88;;;8.68;;
17261;SDS011;9873;52.236;21.002;2023-05-25T22:48:10;16.90;;;7.85;;
17261;SDS011;9873;52.236;21.002;2023-05-25T22:58:17;12.90;;;9.25;;
17261;SDS011;9873;52.236;21.002;2023-05-25T23:08:25;10.82;;;9.52;;
17261;SDS011;9873;52.236;21.002;2023-05-25T23:18:29;9.73;;;8.75;;
17261;SDS011;9873;52.236;21.002;2023-05-25T23:28:35;9.80;;;8.32;;
17261;SDS011;9873;52.236;21.002;2023-05-25T23:38:40;9.23;;;6.65;;
17261;SDS011;9873;52.236;21.002;2023-05-25T23:48:45;7.03;;;5.55;;
17261;SDS011;9873;52.236;21.002;2023-05-25T23:58:53;9.68;;;6.80;;
